sensor_id;sensor_type;location;lat;lon;timestamp;pressure;altitude;pressure_sealevel;temperature;humidity
61055;BME280;46939;48.940;8.258;2022-07-29T00:01:14;100034.72;;;25.13;43.56
61055;BME280;46939;48.940;8.258;2022-07-29T00:03:45;100035.56;;;25.08;43.11
61055;BME280;46939;48.940;8.258;2022-07-29T00:06:16;100031.31;;;25.02;43.75
61055;BME280;46939;48.940;8.258;2022-07-29T00:08:46;100031.03;;;25.03;43.92
61055;BME280;46939;48.940;8.258;2022-07-29T00:11:15;100023.81;;;24.94;43.84
61055;BME280;46939;48.940;8.258;2022-07-29T00:13:43;100041.13;;;24.98;43.96
61055;BME280;46939;48.940;8.258;2022-07-29T00:16:12;100032.97;;;24.98;43.99
61055;BME280;46939;48.940;8.258;2022-07-29T00:18:41;100031.69;;;24.95;44.39
61055;BME280;46939;48.940;8.258;2022-07-29T00:21:14;100024.84;;;24.98;44.94
61055;BME280;46939;48.940;8.258;2022-07-29T00:23:43;100026.84;;;24.92;45.10
61055;BME280;46939;48.940;8.258;2022-07-29T00:26:11;100016.28;;;24.91;45.44
61055;BME280;46939;48.940;8.258;2022-07-29T00:28:40;100025.81;;;24.88;45.88
61055;BME280;46939;48.940;8.258;2022-07-29T00:31:09;100024.41;;;24.91;45.52
61055;BME280;46939;48.940;8.258;2022-07-29T00:33:37;100021.53;;;24.82;45.68
61055;BME280;46939;48.940;8.258;2022-07-29T00:36:06;100014.59;;;24.76;46.08
61055;BME280;46939;48.940;8.258;2022-07-29T00:38:35;100013.78;;;24.75;45.85
61055;BME280;46939;48.940;8.258;2022-07-29T00:41:03;100008.78;;;24.64;46.33
61055;BME280;46939;48.940;8.258;2022-07-29T00:43:32;100013.34;;;24.44;46.97
61055;BME280;46939;48.940;8.258;2022-07-29T00:46:01;100005.00;;;24.11;47.76
61055;BME280;46939;48.940;8.258;2022-07-29T00:48:29;100012.84;;;24.13;48.00
61055;BME280;46939;48.940;8.258;2022-07-29T00:50:59;100009.38;;;24.07;47.61
61055;BME280;46939;48.940;8.258;2022-07-29T00:53:29;100014.16;;;23.86;48.76
61055;BME280;46939;48.940;8.258;2022-07-29T00:56:00;100012.19;;;23.68;49.50
61055;BME280;46939;48.940;8.258;2022-07-29T00:58:29;100003.97;;;23.78;48.75
61055;BME280;46939;48.940;8.258;2022-07-29T01:00:58;100006.59;;;23.88;48.41
61055;BME280;46939;48.940;8.258;2022-07-29T01:03:26;100012.25;;;23.92;48.33
61055;BME280;46939;48.940;8.258;2022-07-29T01:05:55;100013.66;;;23.84;48.45
61055;BME280;46939;48.940;8.258;2022-07-29T01:08:24;100005.94;;;23.68;49.03
61055;BME280;46939;48.940;8.258;2022-07-29T01:10:53;100013.31;;;23.57;49.59
61055;BME280;46939;48.940;8.258;2022-07-29T01:13:29;100007.31;;;23.60;49.57
61055;BME280;46939;48.940;8.258;2022-07-29T01:16:04;100006.78;;;23.68;49.46
61055;BME280;46939;48.940;8.258;2022-07-29T01:18:37;100008.09;;;23.71;49.40
61055;BME280;46939;48.940;8.258;2022-07-29T01:21:27;100003.78;;;23.70;49.42
61055;BME280;46939;48.940;8.258;2022-07-29T01:24:17;100008.38;;;23.69;49.49
61055;BME280;46939;48.940;8.258;2022-07-29T01:26:57;99986.56;;;23.55;49.52
61055;BME280;46939;48.940;8.258;2022-07-29T01:29:32;100012.22;;;23.58;49.97
61055;BME280;46939;48.940;8.258;2022-07-29T01:32:06;100006.81;;;23.58;49.80
61055;BME280;46939;48.940;8.258;2022-07-29T01:34:41;100011.00;;;23.40;50.45
61055;BME280;46939;48.940;8.258;2022-07-29T01:37:19;100015.34;;;23.36;50.67
61055;BME280;46939;48.940;8.258;2022-07-29T01:39:49;100017.78;;;23.37;50.50
61055;BME280;46939;48.940;8.258;2022-07-29T01:42:23;100022.09;;;23.38;50.39
61055;BME280;46939;48.940;8.258;2022-07-29T01:45:02;100013.19;;;23.38;50.83
61055;BME280;46939;48.940;8.258;2022-07-29T01:47:34;100016.09;;;23.47;50.68
61055;BME280;46939;48.940;8.258;2022-07-29T01:50:08;100017.19;;;23.46;50.85
61055;BME280;46939;48.940;8.258;2022-07-29T01:52:43;100022.34;;;23.42;51.08
61055;BME280;46939;48.940;8.258;2022-07-29T01:55:15;100022.16;;;23.28;51.47
61055;BME280;46939;48.940;8.258;2022-07-29T01:57:46;100017.06;;;23.27;50.94
61055;BME280;46939;48.940;8.258;2022-07-29T02:00:18;100028.41;;;23.24;51.10
61055;BME280;46939;48.940;8.258;2022-07-29T02:02:49;100034.63;;;23.24;51.08
61055;BME280;46939;48.940;8.258;2022-07-29T02:05:20;100030.06;;;23.20;51.27
61055;BME280;46939;48.940;8.258;2022-07-29T02:07:51;100027.88;;;23.27;51.10
61055;BME280;46939;48.940;8.258;2022-07-29T02:10:23;100024.88;;;23.28;51.17
61055;BME280;46939;48.940;8.258;2022-07-29T02:12:54;100027.06;;;23.26;51.10
61055;BME280;46939;48.940;8.258;2022-07-29T02:15:29;100025.66;;;23.29;51.28
61055;BME280;46939;48.940;8.258;2022-07-29T02:18:02;100031.13;;;23.24;51.50
61055;BME280;46939;48.940;8.258;2022-07-29T02:20:33;100026.06;;;23.12;51.45
61055;BME280;46939;48.940;8.258;2022-07-29T02:23:02;100029.81;;;23.16;51.18
61055;BME280;46939;48.940;8.258;2022-07-29T02:25:31;100033.41;;;23.06;51.78
61055;BME280;46939;48.940;8.258;2022-07-29T02:28:00;100032.00;;;23.09;51.51
61055;BME280;46939;48.940;8.258;2022-07-29T02:30:34;100032.22;;;23.23;51.20
61055;BME280;46939;48.940;8.258;2022-07-29T02:33:05;100029.53;;;23.18;50.81
61055;BME280;46939;48.940;8.258;2022-07-29T02:35:35;100026.81;;;23.23;50.33
61055;BME280;46939;48.940;8.258;2022-07-29T02:38:06;100038.47;;;23.18;50.88
61055;BME280;46939;48.940;8.258;2022-07-29T02:40:50;100029.84;;;23.06;51.15
61055;BME280;46939;48.940;8.258;2022-07-29T02:43:21;100023.16;;;23.03;51.21
61055;BME280;46939;48.940;8.258;2022-07-29T02:45:54;100025.56;;;23.05;51.48
61055;BME280;46939;48.940;8.258;2022-07-29T02:48:38;100022.09;;;22.94;51.57
61055;BME280;46939;48.940;8.258;2022-07-29T02:51:12;100031.28;;;22.93;52.04
61055;BME280;46939;48.940;8.258;2022-07-29T02:53:48;100023.19;;;22.93;51.82
61055;BME280;46939;48.940;8.258;2022-07-29T02:56:24;100030.19;;;22.94;51.53
61055;BME280;46939;48.940;8.258;2022-07-29T02:58:56;100031.03;;;22.84;51.97
61055;BME280;46939;48.940;8.258;2022-07-29T03:01:31;100026.78;;;22.68;52.26
61055;BME280;46939;48.940;8.258;2022-07-29T03:04:03;100028.16;;;22.65;52.68
61055;BME280;46939;48.940;8.258;2022-07-29T03:06:33;100026.84;;;22.48;53.24
61055;BME280;46939;48.940;8.258;2022-07-29T03:09:03;100033.06;;;22.53;52.84
61055;BME280;46939;48.940;8.258;2022-07-29T03:11:32;100039.81;;;22.51;52.69
61055;BME280;46939;48.940;8.258;2022-07-29T03:14:02;100034.38;;;22.56;52.49
61055;BME280;46939;48.940;8.258;2022-07-29T03:16:34;100039.25;;;22.54;52.70
61055;BME280;46939;48.940;8.258;2022-07-29T03:19:05;100044.41;;;22.45;53.06
61055;BME280;46939;48.940;8.258;2022-07-29T03:21:33;100036.88;;;22.32;53.62
61055;BME280;46939;48.940;8.258;2022-07-29T03:24:02;100039.31;;;22.28;53.64
61055;BME280;46939;48.940;8.258;2022-07-29T03:26:31;100044.72;;;22.33;53.19
61055;BME280;46939;48.940;8.258;2022-07-29T03:28:59;100041.75;;;22.35;53.50
61055;BME280;46939;48.940;8.258;2022-07-29T03:31:28;100044.16;;;22.36;53.46
61055;BME280;46939;48.940;8.258;2022-07-29T03:33:59;100049.28;;;22.38;53.35
61055;BME280;46939;48.940;8.258;2022-07-29T03:36:28;100052.78;;;22.38;53.21
61055;BME280;46939;48.940;8.258;2022-07-29T03:38:57;100054.38;;;22.45;52.90
61055;BME280;46939;48.940;8.258;2022-07-29T03:41:25;100043.31;;;22.46;52.80
61055;BME280;46939;48.940;8.258;2022-07-29T03:43:55;100047.91;;;22.51;52.45
61055;BME280;46939;48.940;8.258;2022-07-29T03:46:26;100048.19;;;22.49;52.80
61055;BME280;46939;48.940;8.258;2022-07-29T03:49:01;100052.22;;;22.57;52.41
61055;BME280;46939;48.940;8.258;2022-07-29T03:51:31;100061.38;;;22.56;52.03
61055;BME280;46939;48.940;8.258;2022-07-29T03:54:00;100059.22;;;22.58;52.21
61055;BME280;46939;48.940;8.258;2022-07-29T03:56:32;100051.16;;;22.53;52.70
61055;BME280;46939;48.940;8.258;2022-07-29T03:59:03;100054.38;;;22.50;52.43
61055;BME280;46939;48.940;8.258;2022-07-29T04:01:33;100043.91;;;22.28;53.53
61055;BME280;46939;48.940;8.258;2022-07-29T04:04:05;100050.66;;;22.25;53.65
61055;BME280;46939;48.940;8.258;2022-07-29T04:06:38;100052.28;;;22.26;53.40
61055;BME280;46939;48.940;8.258;2022-07-29T04:09:07;100060.09;;;22.28;53.37
61055;BME280;46939;48.940;8.258;2022-07-29T04:11:36;100060.66;;;22.14;54.08
61055;BME280;46939;48.940;8.258;2022-07-29T04:14:06;100057.66;;;22.21;53.79
61055;BME280;46939;48.940;8.258;2022-07-29T04:16:35;100067.13;;;22.13;54.31
61055;BME280;46939;48.940;8.258;2022-07-29T04:19:06;100067.38;;;21.97;54.59
61055;BME280;46939;48.940;8.258;2022-07-29T04:21:37;100063.09;;;21.96;54.07
61055;BME280;46939;48.940;8.258;2022-07-29T04:24:07;100071.69;;;21.82;55.01
61055;BME280;46939;48.940;8.258;2022-07-29T04:26:36;100074.69;;;21.91;54.81
61055;BME280;46939;48.940;8.258;2022-07-29T04:29:04;100067.91;;;21.93;54.46
61055;BME280;46939;48.940;8.258;2022-07-29T04:31:33;100070.63;;;21.83;55.00
61055;BME280;46939;48.940;8.258;2022-07-29T04:34:01;100075.75;;;21.85;55.12
61055;BME280;46939;48.940;8.258;2022-07-29T04:36:32;100075.75;;;21.80;55.15
61055;BME280;46939;48.940;8.258;2022-07-29T04:39:02;100076.53;;;21.75;55.45
61055;BME280;46939;48.940;8.258;2022-07-29T04:41:30;100081.69;;;21.92;55.14
61055;BME280;46939;48.940;8.258;2022-07-29T04:43:59;100087.91;;;22.03;54.29
61055;BME280;46939;48.940;8.258;2022-07-29T04:46:31;100084.38;;;22.12;54.04
61055;BME280;46939;48.940;8.258;2022-07-29T04:48:59;100086.28;;;22.17;53.67
61055;BME280;46939;48.940;8.258;2022-07-29T04:51:28;100091.41;;;22.18;53.92
61055;BME280;46939;48.940;8.258;2022-07-29T04:53:59;100086.00;;;22.24;53.70
61055;BME280;46939;48.940;8.258;2022-07-29T04:56:28;100083.84;;;22.26;53.53
61055;BME280;46939;48.940;8.258;2022-07-29T04:58:57;100087.63;;;22.30;53.54
61055;BME280;46939;48.940;8.258;2022-07-29T05:01:25;100092.22;;;22.34;53.34
61055;BME280;46939;48.940;8.258;2022-07-29T05:03:54;100092.47;;;22.33;53.85
61055;BME280;46939;48.940;8.258;2022-07-29T05:06:22;100093.81;;;22.35;53.81
61055;BME280;46939;48.940;8.258;2022-07-29T05:08:51;100093.81;;;22.25;53.94
61055;BME280;46939;48.940;8.258;2022-07-29T05:11:22;100095.72;;;22.25;54.27
61055;BME280;46939;48.940;8.258;2022-07-29T05:13:51;100093.28;;;22.23;54.33
61055;BME280;46939;48.940;8.258;2022-07-29T05:16:19;100096.53;;;22.25;54.50
61055;BME280;46939;48.940;8.258;2022-07-29T05:18:48;100097.59;;;22.24;53.97
61055;BME280;46939;48.940;8.258;2022-07-29T05:21:16;100101.94;;;22.30;53.81
61055;BME280;46939;48.940;8.258;2022-07-29T05:26:13;100098.69;;;22.38;53.39
61055;BME280;46939;48.940;8.258;2022-07-29T05:31:13;100101.91;;;22.40;53.74
61055;BME280;46939;48.940;8.258;2022-07-29T05:33:42;100099.19;;;22.40;53.89
61055;BME280;46939;48.940;8.258;2022-07-29T05:36:11;100101.38;;;22.38;53.76
61055;BME280;46939;48.940;8.258;2022-07-29T05:38:39;100108.88;;;22.52;53.50
61055;BME280;46939;48.940;8.258;2022-07-29T05:41:08;100103.47;;;22.62;53.60
61055;BME280;46939;48.940;8.258;2022-07-29T05:43:37;100105.34;;;22.66;53.80
61055;BME280;46939;48.940;8.258;2022-07-29T05:46:08;100110.44;;;22.78;52.76
61055;BME280;46939;48.940;8.258;2022-07-29T05:48:37;100117.53;;;22.64;53.11
61055;BME280;46939;48.940;8.258;2022-07-29T05:51:05;100116.38;;;22.85;52.71
61055;BME280;46939;48.940;8.258;2022-07-29T05:53:34;100120.69;;;22.97;52.17
61055;BME280;46939;48.940;8.258;2022-07-29T05:56:03;100129.31;;;23.04;52.04
61055;BME280;46939;48.940;8.258;2022-07-29T05:58:33;100127.59;;;23.23;51.31
61055;BME280;46939;48.940;8.258;2022-07-29T06:01:01;100121.56;;;23.36;51.08
61055;BME280;46939;48.940;8.258;2022-07-29T06:03:33;100134.97;;;23.62;50.47
61055;BME280;46939;48.940;8.258;2022-07-29T06:06:03;100144.16;;;23.66;50.27
61055;BME280;46939;48.940;8.258;2022-07-29T06:08:32;100148.66;;;23.81;49.97
61055;BME280;46939;48.940;8.258;2022-07-29T06:11:02;100151.56;;;23.90;49.32
61055;BME280;46939;48.940;8.258;2022-07-29T06:13:31;100153.91;;;24.01;49.71
61055;BME280;46939;48.940;8.258;2022-07-29T06:15:59;100155.19;;;24.14;49.47
61055;BME280;46939;48.940;8.258;2022-07-29T06:18:28;100158.34;;;24.26;49.15
61055;BME280;46939;48.940;8.258;2022-07-29T06:20:59;100162.50;;;24.48;48.63
61055;BME280;46939;48.940;8.258;2022-07-29T06:23:28;100153.97;;;24.59;47.91
61055;BME280;46939;48.940;8.258;2022-07-29T06:25:56;100163.50;;;24.57;47.65
61055;BME280;46939;48.940;8.258;2022-07-29T06:28:25;100160.31;;;24.50;46.99
61055;BME280;46939;48.940;8.258;2022-07-29T06:30:54;100147.91;;;24.44;46.20
61055;BME280;46939;48.940;8.258;2022-07-29T06:33:22;100146.22;;;24.53;45.82
61055;BME280;46939;48.940;8.258;2022-07-29T06:35:51;100150.47;;;24.59;45.17
61055;BME280;46939;48.940;8.258;2022-07-29T06:38:22;100145.47;;;24.71;45.07
61055;BME280;46939;48.940;8.258;2022-07-29T06:40:51;100160.50;;;24.82;45.04
61055;BME280;46939;48.940;8.258;2022-07-29T06:43:31;100159.84;;;24.96;44.53
61055;BME280;46939;48.940;8.258;2022-07-29T06:46:02;100158.03;;;25.15;44.04
61055;BME280;46939;48.940;8.258;2022-07-29T06:48:31;100159.44;;;25.07;44.53
61055;BME280;46939;48.940;8.258;2022-07-29T06:51:02;100162.28;;;25.40;43.90
61055;BME280;46939;48.940;8.258;2022-07-29T06:53:34;100164.38;;;25.67;43.18
61055;BME280;46939;48.940;8.258;2022-07-29T06:56:04;100162.28;;;25.83;42.92
61055;BME280;46939;48.940;8.258;2022-07-29T06:58:35;100161.31;;;25.93;42.38
61055;BME280;46939;48.940;8.258;2022-07-29T07:01:06;100169.66;;;26.15;42.25
61055;BME280;46939;48.940;8.258;2022-07-29T07:03:34;100167.81;;;26.43;41.17
61055;BME280;46939;48.940;8.258;2022-07-29T07:06:03;100159.75;;;26.71;41.04
61055;BME280;46939;48.940;8.258;2022-07-29T07:08:34;100164.59;;;26.88;40.32
61055;BME280;46939;48.940;8.258;2022-07-29T07:11:03;100169.81;;;26.98;40.13
61055;BME280;46939;48.940;8.258;2022-07-29T07:13:32;100176.09;;;26.98;39.43
61055;BME280;46939;48.940;8.258;2022-07-29T07:16:04;100182.09;;;27.09;40.12
61055;BME280;46939;48.940;8.258;2022-07-29T07:18:33;100173.25;;;27.31;39.31
61055;BME280;46939;48.940;8.258;2022-07-29T07:21:01;100179.16;;;27.61;37.56
61055;BME280;46939;48.940;8.258;2022-07-29T07:23:30;100179.66;;;27.63;37.12
61055;BME280;46939;48.940;8.258;2022-07-29T07:26:01;100189.50;;;27.72;37.06
61055;BME280;46939;48.940;8.258;2022-07-29T07:28:31;100191.06;;;28.23;35.81
61055;BME280;46939;48.940;8.258;2022-07-29T07:31:00;100186.16;;;28.34;35.34
61055;BME280;46939;48.940;8.258;2022-07-29T07:33:29;100186.63;;;28.50;34.56
61055;BME280;46939;48.940;8.258;2022-07-29T07:35:57;100188.56;;;28.58;33.87
61055;BME280;46939;48.940;8.258;2022-07-29T07:38:26;100178.88;;;28.43;33.89
61055;BME280;46939;48.940;8.258;2022-07-29T07:40:54;100182.38;;;28.66;33.85
61055;BME280;46939;48.940;8.258;2022-07-29T07:43:25;100184.25;;;28.97;33.33
61055;BME280;46939;48.940;8.258;2022-07-29T07:45:54;100183.69;;;29.09;33.07
61055;BME280;46939;48.940;8.258;2022-07-29T07:48:22;100183.66;;;29.00;33.28
61055;BME280;46939;48.940;8.258;2022-07-29T07:50:51;100176.53;;;29.22;33.06
61055;BME280;46939;48.940;8.258;2022-07-29T07:53:20;100183.06;;;29.20;33.27
61055;BME280;46939;48.940;8.258;2022-07-29T07:55:48;100181.38;;;29.33;33.11
61055;BME280;46939;48.940;8.258;2022-07-29T07:58:17;100181.53;;;29.46;32.68
61055;BME280;46939;48.940;8.258;2022-07-29T08:00:48;100185.41;;;29.53;32.85
61055;BME280;46939;48.940;8.258;2022-07-29T08:03:17;100181.13;;;29.04;33.08
61055;BME280;46939;48.940;8.258;2022-07-29T08:05:46;100176.19;;;29.23;33.27
61055;BME280;46939;48.940;8.258;2022-07-29T08:08:16;100179.91;;;29.36;33.07
61055;BME280;46939;48.940;8.258;2022-07-29T08:10:45;100179.44;;;29.34;33.56
61055;BME280;46939;48.940;8.258;2022-07-29T08:13:25;100179.59;;;29.46;33.37
61055;BME280;46939;48.940;8.258;2022-07-29T08:15:59;100185.59;;;29.65;33.27
61055;BME280;46939;48.940;8.258;2022-07-29T08:18:36;100194.59;;;29.75;32.40
61055;BME280;46939;48.940;8.258;2022-07-29T08:21:05;100195.22;;;29.98;32.60
61055;BME280;46939;48.940;8.258;2022-07-29T08:23:34;100193.31;;;30.24;32.17
61055;BME280;46939;48.940;8.258;2022-07-29T08:26:04;100195.88;;;30.12;31.96
61055;BME280;46939;48.940;8.258;2022-07-29T08:28:36;100196.22;;;30.19;30.81
61055;BME280;46939;48.940;8.258;2022-07-29T08:31:07;100195.19;;;30.50;31.07
61055;BME280;46939;48.940;8.258;2022-07-29T08:33:36;100186.41;;;30.91;30.12
61055;BME280;46939;48.940;8.258;2022-07-29T08:36:05;100191.31;;;31.45;29.09
61055;BME280;46939;48.940;8.258;2022-07-29T08:38:34;100189.25;;;31.83;28.73
61055;BME280;46939;48.940;8.258;2022-07-29T08:41:03;100198.75;;;32.40;28.77
61055;BME280;46939;48.940;8.258;2022-07-29T08:43:31;100189.41;;;31.78;28.01
61055;BME280;46939;48.940;8.258;2022-07-29T08:46:02;100192.97;;;31.37;29.00
61055;BME280;46939;48.940;8.258;2022-07-29T08:48:34;100196.66;;;31.03;29.54
61055;BME280;46939;48.940;8.258;2022-07-29T08:51:02;100199.84;;;31.64;29.22
61055;BME280;46939;48.940;8.258;2022-07-29T08:53:32;100202.66;;;31.26;29.07
61055;BME280;46939;48.940;8.258;2022-07-29T08:56:04;100195.81;;;31.91;28.67
61055;BME280;46939;48.940;8.258;2022-07-29T08:58:33;100198.66;;;31.74;28.25
61055;BME280;46939;48.940;8.258;2022-07-29T09:01:03;100197.34;;;32.34;27.81
61055;BME280;46939;48.940;8.258;2022-07-29T09:03:36;100199.25;;;32.54;26.96
61055;BME280;46939;48.940;8.258;2022-07-29T09:06:05;100201.91;;;32.75;26.70
61055;BME280;46939;48.940;8.258;2022-07-29T09:08:38;100197.03;;;32.93;26.09
61055;BME280;46939;48.940;8.258;2022-07-29T09:11:07;100204.94;;;32.49;26.74
61055;BME280;46939;48.940;8.258;2022-07-29T09:13:37;100193.91;;;32.82;26.94
61055;BME280;46939;48.940;8.258;2022-07-29T09:16:06;100193.34;;;32.89;26.49
61055;BME280;46939;48.940;8.258;2022-07-29T09:18:40;100192.34;;;33.30;26.38
61055;BME280;46939;48.940;8.258;2022-07-29T09:21:12;100185.25;;;33.82;25.67
61055;BME280;46939;48.940;8.258;2022-07-29T09:24:05;100195.41;;;33.53;25.69
61055;BME280;46939;48.940;8.258;2022-07-29T09:26:36;100185.56;;;32.91;26.94
61055;BME280;46939;48.940;8.258;2022-07-29T09:29:11;100178.34;;;33.60;26.27
61055;BME280;46939;48.940;8.258;2022-07-29T09:31:43;100176.19;;;33.53;26.16
61055;BME280;46939;48.940;8.258;2022-07-29T09:34:22;100171.88;;;33.16;26.31
61055;BME280;46939;48.940;8.258;2022-07-29T09:36:52;100180.53;;;33.54;26.08
61055;BME280;46939;48.940;8.258;2022-07-29T09:39:32;100180.31;;;33.60;26.35
61055;BME280;46939;48.940;8.258;2022-07-29T09:42:04;100181.59;;;33.78;26.35
61055;BME280;46939;48.940;8.258;2022-07-29T09:44:44;100181.91;;;33.89;25.55
61055;BME280;46939;48.940;8.258;2022-07-29T09:47:14;100192.09;;;33.48;25.73
61055;BME280;46939;48.940;8.258;2022-07-29T09:49:56;100180.69;;;33.74;25.86
61055;BME280;46939;48.940;8.258;2022-07-29T09:52:26;100180.38;;;33.75;25.53
61055;BME280;46939;48.940;8.258;2022-07-29T09:55:04;100187.19;;;33.53;25.24
61055;BME280;46939;48.940;8.258;2022-07-29T09:57:36;100180.41;;;33.91;25.32
61055;BME280;46939;48.940;8.258;2022-07-29T10:00:07;100175.97;;;33.87;25.07
61055;BME280;46939;48.940;8.258;2022-07-29T10:02:41;100180.22;;;34.40;24.92
61055;BME280;46939;48.940;8.258;2022-07-29T10:05:25;100176.63;;;34.68;25.15
61055;BME280;46939;48.940;8.258;2022-07-29T10:07:55;100169.84;;;34.97;23.88
61055;BME280;46939;48.940;8.258;2022-07-29T10:10:26;100174.47;;;35.60;23.13
61055;BME280;46939;48.940;8.258;2022-07-29T10:12:57;100150.47;;;35.60;22.98
61055;BME280;46939;48.940;8.258;2022-07-29T10:15:28;100161.97;;;35.85;22.12
61055;BME280;46939;48.940;8.258;2022-07-29T10:17:58;100170.09;;;35.23;22.79
61055;BME280;46939;48.940;8.258;2022-07-29T10:20:30;100168.25;;;35.47;21.74
61055;BME280;46939;48.940;8.258;2022-07-29T10:22:59;100164.31;;;35.29;21.28
61055;BME280;46939;48.940;8.258;2022-07-29T10:25:27;100158.22;;;35.04;22.02
61055;BME280;46939;48.940;8.258;2022-07-29T10:27:56;100152.69;;;35.19;21.91
61055;BME280;46939;48.940;8.258;2022-07-29T10:30:25;100156.19;;;35.90;20.91
61055;BME280;46939;48.940;8.258;2022-07-29T10:33:11;100151.88;;;36.12;21.51
61055;BME280;46939;48.940;8.258;2022-07-29T10:36:19;100144.09;;;36.60;20.40
61055;BME280;46939;48.940;8.258;2022-07-29T10:38:59;100144.66;;;36.27;20.74
61055;BME280;46939;48.940;8.258;2022-07-29T10:41:52;100154.25;;;36.79;20.73
61055;BME280;46939;48.940;8.258;2022-07-29T10:44:25;100152.81;;;36.20;20.36
61055;BME280;46939;48.940;8.258;2022-07-29T10:46:54;100142.88;;;36.84;20.69
61055;BME280;46939;48.940;8.258;2022-07-29T10:49:23;100135.53;;;37.19;19.79
61055;BME280;46939;48.940;8.258;2022-07-29T10:51:59;100150.97;;;36.97;20.52
61055;BME280;46939;48.940;8.258;2022-07-29T10:54:51;100144.16;;;35.99;20.38
61055;BME280;46939;48.940;8.258;2022-07-29T10:57:28;100138.16;;;35.38;20.83
61055;BME280;46939;48.940;8.258;2022-07-29T11:03:43;100131.47;;;36.17;19.97
61055;BME280;46939;48.940;8.258;2022-07-29T11:06:13;100143.50;;;36.97;19.10
61055;BME280;46939;48.940;8.258;2022-07-29T11:08:44;100137.25;;;36.77;19.56
61055;BME280;46939;48.940;8.258;2022-07-29T11:11:34;100146.13;;;37.17;19.00
61055;BME280;46939;48.940;8.258;2022-07-29T11:14:02;100144.81;;;37.63;18.34
61055;BME280;46939;48.940;8.258;2022-07-29T11:17:02;100136.09;;;37.05;18.76
61055;BME280;46939;48.940;8.258;2022-07-29T11:19:31;100138.63;;;36.64;19.59
61055;BME280;46939;48.940;8.258;2022-07-29T11:22:02;100141.28;;;36.57;19.36
61055;BME280;46939;48.940;8.258;2022-07-29T11:24:33;100141.94;;;36.50;19.82
61055;BME280;46939;48.940;8.258;2022-07-29T11:27:09;100140.13;;;36.38;19.66
61055;BME280;46939;48.940;8.258;2022-07-29T11:29:50;100137.31;;;36.12;20.05
61055;BME280;46939;48.940;8.258;2022-07-29T11:32:20;100141.59;;;36.78;20.10
61055;BME280;46939;48.940;8.258;2022-07-29T11:37:33;100136.47;;;37.90;18.70
61055;BME280;46939;48.940;8.258;2022-07-29T11:40:15;100129.16;;;38.12;18.65
61055;BME280;46939;48.940;8.258;2022-07-29T11:42:49;100117.34;;;38.15;17.86
61055;BME280;46939;48.940;8.258;2022-07-29T11:45:23;100125.78;;;38.29;17.88
61055;BME280;46939;48.940;8.258;2022-07-29T11:47:55;100124.34;;;38.43;17.60
61055;BME280;46939;48.940;8.258;2022-07-29T11:50:33;100138.97;;;38.02;17.31
61055;BME280;46939;48.940;8.258;2022-07-29T11:53:09;100145.31;;;37.73;17.93
61055;BME280;46939;48.940;8.258;2022-07-29T11:55:42;100140.03;;;37.91;17.72
61055;BME280;46939;48.940;8.258;2022-07-29T11:58:10;100139.44;;;38.11;18.05
61055;BME280;46939;48.940;8.258;2022-07-29T12:00:40;100136.28;;;38.09;18.11
61055;BME280;46939;48.940;8.258;2022-07-29T12:03:11;100135.19;;;38.21;18.29
61055;BME280;46939;48.940;8.258;2022-07-29T12:05:41;100128.13;;;38.27;17.96
61055;BME280;46939;48.940;8.258;2022-07-29T12:08:12;100139.19;;;38.27;17.96
61055;BME280;46939;48.940;8.258;2022-07-29T12:10:44;100135.72;;;38.34;17.82
61055;BME280;46939;48.940;8.258;2022-07-29T12:13:15;100148.19;;;37.50;18.18
61055;BME280;46939;48.940;8.258;2022-07-29T12:15:51;100138.88;;;37.95;18.50
61055;BME280;46939;48.940;8.258;2022-07-29T12:18:22;100139.72;;;37.09;18.50
61055;BME280;46939;48.940;8.258;2022-07-29T12:20:57;100138.19;;;37.11;18.66
61055;BME280;46939;48.940;8.258;2022-07-29T12:23:29;100134.91;;;37.02;17.92
61055;BME280;46939;48.940;8.258;2022-07-29T12:26:03;100133.34;;;37.05;18.68
61055;BME280;46939;48.940;8.258;2022-07-29T12:28:36;100129.56;;;36.63;18.84
61055;BME280;46939;48.940;8.258;2022-07-29T12:31:05;100139.69;;;36.56;18.78
61055;BME280;46939;48.940;8.258;2022-07-29T12:33:41;100140.34;;;35.49;20.36
61055;BME280;46939;48.940;8.258;2022-07-29T12:36:13;100135.13;;;35.08;20.53
61055;BME280;46939;48.940;8.258;2022-07-29T12:38:42;100133.94;;;35.25;20.80
61055;BME280;46939;48.940;8.258;2022-07-29T12:41:13;100137.03;;;35.59;20.76
61055;BME280;46939;48.940;8.258;2022-07-29T12:43:52;100136.91;;;35.71;20.14
61055;BME280;46939;48.940;8.258;2022-07-29T12:46:21;100136.59;;;35.95;20.24
61055;BME280;46939;48.940;8.258;2022-07-29T12:48:51;100139.50;;;36.03;20.26
61055;BME280;46939;48.940;8.258;2022-07-29T12:51:28;100147.31;;;35.81;20.32
61055;BME280;46939;48.940;8.258;2022-07-29T12:54:09;100150.31;;;35.18;20.90
61055;BME280;46939;48.940;8.258;2022-07-29T12:56:43;100153.25;;;35.44;20.44
61055;BME280;46939;48.940;8.258;2022-07-29T12:59:14;100143.47;;;34.96;21.06
61055;BME280;46939;48.940;8.258;2022-07-29T13:01:44;100145.78;;;34.31;21.92
61055;BME280;46939;48.940;8.258;2022-07-29T13:04:24;100143.84;;;34.63;21.02
61055;BME280;46939;48.940;8.258;2022-07-29T13:06:58;100152.81;;;34.91;20.98
61055;BME280;46939;48.940;8.258;2022-07-29T13:09:37;100143.59;;;35.00;20.37
61055;BME280;46939;48.940;8.258;2022-07-29T13:12:09;100156.00;;;35.09;20.39
61055;BME280;46939;48.940;8.258;2022-07-29T13:14:39;100152.75;;;34.72;19.96
61055;BME280;46939;48.940;8.258;2022-07-29T13:17:11;100156.88;;;33.78;21.59
61055;BME280;46939;48.940;8.258;2022-07-29T13:19:43;100167.00;;;33.62;21.35
61055;BME280;46939;48.940;8.258;2022-07-29T13:22:13;100160.38;;;34.03;21.16
61055;BME280;46939;48.940;8.258;2022-07-29T13:24:53;100163.84;;;34.16;21.25